logo
Rechercher aéroport 
image banner adimage banner adimage banner ad
image banner ad

FMMB - Ambatomainty

Situé à Ambahivahy, Madagascar

ICAO - , IATA - AMY

Données fournies par Airmate  

Information générale

Coordonnées: S17°41'11" E45°37'30"
Élévation : 1020 feet MSL.
Variation magnétique : -14° East
Voir autres Aéroports à Mahajanga

Données opérationnelles

Special qualification required
Heure actuelle UTC:
Heure actuelle locale:
Météo à : - ( 0 km )
METAR: ZMCK 251530Z 30006MPS 9999 FEW030CB BKN033 14/13 Q1009 NOSIG RMK QFE642.3 92 NT
Voir NOTAMs / SUP AIP / TFR affectant cet aéroport [VIEW]
Fréquences de communication: [VIEW]

Pistes:

Identifiant RWYQFULongueur (ft)Largeur (ft)SurfaceLDA (ft)
0649°2705191GRAS
24229°2705191GRAS

Coordonnées de l'aéroport

Adresse: Ambahivahy Madagascar

Vue satellite de FMMB